createdAt,value
2023-05-09T00:00:15.283Z,547.00
2023-05-09T00:01:15.396Z,544.00
2023-05-09T00:02:15.461Z,551.00
2023-05-09T00:03:15.507Z,541.00
2023-05-09T00:04:15.654Z,545.00
2023-05-09T00:05:15.821Z,548.00
2023-05-09T00:06:15.702Z,543.00
2023-05-09T00:07:15.741Z,541.00
2023-05-09T00:08:15.804Z,543.00
2023-05-09T00:09:15.837Z,547.00
2023-05-09T00:10:15.907Z,543.00
2023-05-09T00:11:15.989Z,544.00
2023-05-09T00:12:16.091Z,540.00
2023-05-09T00:13:16.179Z,546.00
2023-05-09T00:14:16.201Z,541.00
2023-05-09T00:15:16.389Z,544.00
2023-05-09T00:16:16.382Z,541.00
2023-05-09T00:17:16.390Z,545.00
2023-05-09T00:18:16.423Z,540.00
2023-05-09T00:19:16.481Z,536.00
2023-05-09T00:20:16.687Z,540.00
2023-05-09T00:21:16.647Z,541.00
2023-05-09T00:22:16.709Z,544.00
2023-05-09T00:23:16.761Z,543.00
2023-05-09T00:24:16.836Z,544.00
2023-05-09T00:25:17.226Z,545.00
2023-05-09T00:26:16.949Z,540.00
2023-05-09T00:27:16.990Z,544.00
2023-05-09T00:28:17.080Z,542.00
2023-05-09T00:29:17.131Z,542.00
2023-05-09T00:30:17.177Z,542.00
2023-05-09T00:31:17.283Z,542.00
2023-05-09T00:32:17.420Z,546.00
2023-05-09T00:33:17.393Z,546.00
2023-05-09T00:34:17.426Z,544.00
2023-05-09T00:35:17.574Z,547.00
2023-05-09T00:36:17.665Z,546.00
2023-05-09T00:37:17.630Z,545.00
2023-05-09T00:38:17.693Z,540.00
2023-05-09T00:39:17.765Z,546.00
2023-05-09T00:40:17.844Z,541.00
2023-05-09T00:41:17.885Z,543.00
2023-05-09T00:42:17.955Z,542.00
2023-05-09T00:43:18.011Z,540.00
2023-05-09T00:44:18.071Z,547.00
2023-05-09T00:45:18.177Z,542.00
2023-05-09T00:46:18.247Z,547.00
2023-05-09T00:47:18.283Z,545.00
2023-05-09T00:48:18.312Z,541.00
2023-05-09T00:49:18.345Z,543.00
2023-05-09T00:50:18.381Z,545.00
2023-05-09T00:51:18.499Z,545.00
2023-05-09T00:52:18.672Z,545.00
2023-05-09T00:53:18.621Z,544.00
2023-05-09T00:54:18.670Z,547.00
2023-05-09T00:55:18.725Z,545.00
2023-05-09T00:56:18.782Z,539.00
2023-05-09T00:57:18.836Z,547.00
2023-05-09T00:58:18.920Z,541.00
2023-05-09T00:59:18.967Z,544.00
2023-05-09T01:00:19.029Z,545.00
2023-05-09T01:01:19.176Z,546.00
2023-05-09T01:02:19.226Z,545.00
2023-05-09T01:03:19.320Z,546.00
2023-05-09T01:04:19.278Z,543.00
2023-05-09T01:05:19.374Z,542.00
2023-05-09T01:06:19.454Z,539.00
2023-05-09T01:07:19.491Z,548.00
2023-05-09T01:08:19.660Z,543.00
2023-05-09T01:09:19.649Z,543.00
2023-05-09T01:10:19.667Z,540.00
2023-05-09T01:11:19.762Z,550.00
2023-05-09T01:12:19.814Z,540.00
2023-05-09T01:13:20.020Z,546.00
2023-05-09T01:14:19.905Z,543.00
2023-05-09T01:15:19.997Z,545.00
2023-05-09T01:16:20.064Z,542.00
2023-05-09T01:17:20.089Z,539.00
2023-05-09T01:18:20.148Z,538.00
2023-05-09T01:19:20.203Z,544.00
2023-05-09T01:20:20.225Z,543.00
2023-05-09T01:21:20.313Z,548.00
2023-05-09T01:22:20.374Z,541.00
2023-05-09T01:23:20.464Z,541.00
2023-05-09T01:24:20.602Z,544.00
2023-05-09T01:25:20.553Z,539.00
2023-05-09T01:26:20.688Z,545.00
2023-05-09T01:27:20.734Z,544.00
2023-05-09T01:28:20.747Z,542.00
2023-05-09T01:29:20.806Z,546.00
2023-05-09T01:30:20.852Z,544.00
2023-05-09T01:31:20.930Z,541.00
2023-05-09T01:32:20.957Z,544.00
2023-05-09T01:33:21.016Z,545.00
2023-05-09T01:34:21.083Z,546.00
2023-05-09T01:35:21.126Z,544.00
2023-05-09T01:36:21.186Z,540.00
2023-05-09T01:37:21.227Z,546.00
2023-05-09T01:38:21.269Z,544.00
2023-05-09T01:39:21.333Z,545.00
2023-05-09T01:40:21.494Z,543.00
2023-05-09T01:41:21.635Z,550.00
2023-05-09T01:42:21.482Z,546.00
2023-05-09T01:43:21.549Z,542.00
2023-05-09T01:44:21.602Z,542.00
2023-05-09T01:45:21.681Z,545.00
2023-05-09T01:46:22.164Z,545.00
2023-05-09T01:47:21.719Z,541.00
2023-05-09T01:48:21.800Z,544.00
2023-05-09T01:49:21.836Z,544.00
2023-05-09T01:50:21.893Z,540.00
2023-05-09T01:51:21.996Z,543.00
2023-05-09T01:52:21.991Z,541.00
2023-05-09T01:53:22.048Z,540.00
2023-05-09T01:54:22.061Z,540.00
2023-05-09T01:55:22.137Z,541.00
2023-05-09T01:56:22.272Z,539.00
2023-05-09T01:57:22.230Z,538.00
2023-05-09T01:58:22.301Z,540.00
2023-05-09T01:59:22.349Z,540.00
2023-05-09T02:00:22.414Z,540.00
2023-05-09T02:01:22.501Z,539.00
2023-05-09T02:02:22.680Z,542.00
2023-05-09T02:03:22.577Z,542.00
2023-05-09T02:04:22.614Z,539.00
2023-05-09T02:05:22.630Z,540.00
2023-05-09T02:06:22.690Z,540.00
2023-05-09T02:07:22.705Z,541.00
2023-05-09T02:08:22.763Z,541.00
2023-05-09T02:09:22.793Z,546.00
2023-05-09T02:10:22.846Z,544.00
2023-05-09T02:11:22.888Z,538.00
2023-05-09T02:12:23.008Z,540.00
2023-05-09T02:13:23.104Z,539.00
2023-05-09T02:14:23.011Z,545.00
2023-05-09T02:15:23.087Z,539.00
2023-05-09T02:16:23.180Z,538.00
2023-05-09T02:17:23.326Z,545.00
2023-05-09T02:18:23.184Z,539.00
2023-05-09T02:19:23.206Z,543.00
2023-05-09T02:20:23.246Z,540.00
2023-05-09T02:21:23.302Z,543.00
2023-05-09T02:22:23.328Z,543.00
2023-05-09T02:23:23.336Z,541.00
2023-05-09T02:24:23.392Z,542.00
2023-05-09T02:25:23.448Z,539.00
2023-05-09T02:26:23.441Z,545.00
2023-05-09T02:27:23.485Z,544.00
2023-05-09T02:28:23.616Z,539.00
2023-05-09T02:29:23.557Z,539.00
2023-05-09T02:30:23.596Z,541.00
2023-05-09T02:31:23.602Z,540.00
2023-05-09T02:32:23.649Z,536.00
2023-05-09T02:33:23.661Z,540.00
2023-05-09T02:34:23.654Z,536.00
2023-05-09T02:35:23.690Z,537.00
2023-05-09T02:36:23.746Z,538.00
2023-05-09T02:37:23.758Z,541.00
2023-05-09T02:38:23.797Z,541.00
2023-05-09T02:39:23.750Z,538.00
2023-05-09T02:40:23.755Z,540.00
2023-05-09T02:41:23.763Z,540.00
2023-05-09T02:42:23.768Z,543.00
2023-05-09T02:43:23.786Z,537.00
2023-05-09T02:44:23.849Z,541.00
2023-05-09T02:45:23.741Z,543.00
2023-05-09T02:46:23.800Z,540.00
2023-05-09T02:47:23.795Z,543.00
2023-05-09T02:48:23.767Z,542.00
2023-05-09T02:49:32.007Z,545.00
2023-05-09T02:50:24.750Z,545.00
2023-05-09T02:51:23.732Z,542.00
2023-05-09T02:52:23.756Z,544.00
2023-05-09T02:53:23.746Z,540.00
2023-05-09T02:54:23.727Z,544.00
2023-05-09T02:55:23.717Z,542.00
2023-05-09T02:56:23.692Z,539.00
2023-05-09T02:57:24.204Z,540.00
2023-05-09T02:58:23.674Z,538.00
2023-05-09T02:59:23.677Z,540.00
2023-05-09T03:00:23.740Z,538.00
2023-05-09T03:01:23.737Z,537.00
2023-05-09T03:02:23.840Z,542.00
2023-05-09T03:03:23.711Z,538.00
2023-05-09T03:04:23.664Z,543.00
2023-05-09T03:05:23.638Z,539.00
2023-05-09T03:06:23.670Z,542.00
2023-05-09T03:07:23.741Z,543.00
2023-05-09T03:08:23.751Z,543.00
2023-05-09T03:09:23.819Z,539.00
2023-05-09T03:10:23.863Z,544.00
2023-05-09T03:11:23.928Z,540.00
2023-05-09T03:12:24.015Z,538.00
2023-05-09T03:13:24.119Z,542.00
2023-05-09T03:14:24.112Z,545.00
2023-05-09T03:15:24.152Z,540.00
2023-05-09T03:16:24.339Z,543.00
2023-05-09T03:17:24.271Z,540.00
2023-05-09T03:18:24.307Z,543.00
2023-05-09T03:19:24.369Z,542.00
2023-05-09T03:20:24.412Z,542.00
2023-05-09T03:21:24.463Z,540.00
2023-05-09T03:22:24.525Z,538.00
2023-05-09T03:23:24.631Z,545.00
2023-05-09T03:24:24.609Z,543.00
2023-05-09T03:25:24.634Z,542.00
2023-05-09T03:26:24.697Z,543.00
2023-05-09T03:27:25.209Z,544.00
2023-05-09T03:28:24.801Z,542.00
2023-05-09T03:29:24.859Z,547.00
2023-05-09T03:30:24.939Z,545.00
2023-05-09T03:31:25.039Z,544.00
2023-05-09T03:32:25.168Z,541.00
2023-05-09T03:33:25.111Z,540.00
2023-05-09T03:34:25.156Z,541.00
2023-05-09T03:35:25.193Z,538.00
2023-05-09T03:36:25.279Z,543.00
2023-05-09T03:37:27.107Z,547.00
2023-05-09T03:38:25.355Z,539.00
2023-05-09T03:39:25.441Z,545.00
2023-05-09T03:40:25.472Z,537.00
2023-05-09T03:41:25.542Z,543.00
2023-05-09T03:42:25.567Z,540.00
2023-05-09T03:43:25.645Z,544.00
2023-05-09T03:44:25.694Z,540.00
2023-05-09T03:45:25.724Z,545.00
2023-05-09T03:46:25.843Z,540.00
2023-05-09T03:47:25.813Z,543.00
2023-05-09T03:48:25.961Z,540.00
2023-05-09T03:49:25.942Z,539.00
2023-05-09T03:50:25.989Z,541.00
2023-05-09T03:51:26.094Z,545.00
2023-05-09T03:52:26.711Z,538.00
2023-05-09T03:53:26.133Z,539.00
2023-05-09T03:54:26.217Z,543.00
2023-05-09T03:55:26.240Z,544.00
2023-05-09T03:56:26.318Z,539.00
2023-05-09T03:57:26.352Z,547.00
2023-05-09T03:58:26.423Z,540.00
2023-05-09T03:59:26.430Z,541.00
2023-05-09T04:00:26.458Z,539.00
2023-05-09T04:01:26.498Z,541.00
2023-05-09T04:02:26.565Z,542.00
2023-05-09T04:03:26.668Z,540.00
2023-05-09T04:04:26.723Z,543.00
2023-05-09T04:05:26.674Z,544.00
2023-05-09T04:06:26.710Z,545.00
2023-05-09T04:07:27.227Z,539.00
2023-05-09T04:08:26.795Z,544.00
2023-05-09T04:09:26.828Z,538.00
2023-05-09T04:10:26.873Z,546.00
2023-05-09T04:11:26.916Z,545.00
2023-05-09T04:12:26.955Z,543.00
2023-05-09T04:13:27.025Z,543.00
2023-05-09T04:14:27.052Z,542.00
2023-05-09T04:15:27.111Z,543.00
2023-05-09T04:16:27.180Z,545.00
2023-05-09T04:17:27.291Z,542.00
2023-05-09T04:18:27.246Z,540.00
2023-05-09T04:19:27.293Z,545.00
2023-05-09T04:20:27.470Z,541.00
2023-05-09T04:21:27.377Z,543.00
2023-05-09T04:22:27.449Z,543.00
2023-05-09T04:23:27.497Z,535.00
2023-05-09T04:24:27.558Z,543.00
2023-05-09T04:25:27.589Z,543.00
2023-05-09T04:26:27.643Z,540.00
2023-05-09T04:27:27.728Z,543.00
2023-05-09T04:28:27.718Z,541.00
2023-05-09T04:29:27.766Z,544.00
2023-05-09T04:30:27.834Z,543.00
2023-05-09T04:31:27.951Z,541.00
2023-05-09T04:32:27.942Z,538.00
2023-05-09T04:33:27.975Z,541.00
2023-05-09T04:34:28.043Z,543.00
2023-05-09T04:35:28.082Z,540.00
2023-05-09T04:36:28.207Z,547.00
2023-05-09T04:37:28.277Z,545.00
2023-05-09T04:38:28.242Z,542.00
2023-05-09T04:39:28.269Z,536.00
2023-05-09T04:40:28.337Z,540.00
2023-05-09T04:41:28.347Z,541.00
2023-05-09T04:42:28.751Z,544.00
2023-05-09T04:43:28.387Z,537.00
2023-05-09T04:44:28.355Z,541.00
2023-05-09T04:45:28.379Z,542.00
2023-05-09T04:46:28.373Z,544.00
2023-05-09T04:47:28.807Z,544.00
2023-05-09T04:48:28.373Z,538.00
2023-05-09T04:49:28.376Z,544.00
2023-05-09T04:50:28.389Z,543.00
2023-05-09T04:51:28.353Z,543.00
2023-05-09T04:52:28.582Z,540.00
2023-05-09T04:53:28.375Z,541.00
2023-05-09T04:54:28.394Z,542.00
2023-05-09T04:55:28.412Z,545.00
2023-05-09T04:56:28.385Z,544.00
2023-05-09T04:57:28.395Z,540.00
2023-05-09T04:58:28.405Z,545.00
2023-05-09T04:59:28.377Z,546.00
2023-05-09T05:00:28.423Z,540.00
2023-05-09T05:01:28.457Z,543.00
2023-05-09T05:02:28.796Z,546.00
2023-05-09T05:03:28.446Z,546.00
2023-05-09T05:04:28.470Z,541.00
2023-05-09T05:05:28.686Z,543.00
2023-05-09T05:06:28.410Z,550.00
2023-05-09T05:07:28.430Z,543.00
2023-05-09T05:08:28.506Z,546.00
2023-05-09T05:09:28.405Z,543.00
2023-05-09T05:10:28.433Z,547.00
2023-05-09T05:11:28.382Z,550.00
2023-05-09T05:12:28.398Z,546.00
2023-05-09T05:13:28.430Z,540.00
2023-05-09T05:14:28.384Z,538.00
2023-05-09T05:15:28.352Z,544.00
2023-05-09T05:16:28.410Z,548.00
2023-05-09T05:17:28.410Z,545.00
2023-05-09T05:18:28.383Z,546.00
2023-05-09T05:19:28.357Z,543.00
2023-05-09T05:20:28.372Z,544.00
2023-05-09T05:21:28.330Z,544.00
2023-05-09T05:22:29.016Z,546.00
2023-05-09T05:23:28.347Z,554.00
2023-05-09T05:24:28.461Z,555.00
2023-05-09T05:25:28.368Z,552.00
2023-05-09T05:26:28.372Z,558.00
2023-05-09T05:27:28.362Z,556.00
2023-05-09T05:28:28.409Z,551.00
2023-05-09T05:29:28.360Z,543.00
2023-05-09T05:30:28.349Z,544.00
2023-05-09T05:31:28.392Z,541.00
2023-05-09T05:32:28.393Z,534.00
2023-05-09T05:33:28.336Z,543.00
2023-05-09T05:34:28.356Z,540.00
2023-05-09T05:35:28.353Z,542.00
2023-05-09T05:36:28.365Z,538.00
2023-05-09T05:37:28.802Z,545.00
2023-05-09T05:38:28.340Z,540.00
2023-05-09T05:39:28.344Z,537.00
2023-05-09T05:40:28.439Z,536.00
2023-05-09T05:41:28.332Z,535.00
2023-05-09T05:42:28.382Z,530.00
2023-05-09T05:43:28.335Z,534.00
2023-05-09T05:44:28.346Z,537.00
2023-05-09T05:45:28.424Z,534.00
2023-05-09T05:46:28.382Z,534.00
2023-05-09T05:47:28.370Z,541.00
2023-05-09T05:48:28.373Z,553.00
2023-05-09T05:49:28.376Z,560.00
2023-05-09T05:50:28.393Z,572.00
2023-05-09T05:51:28.353Z,577.00
2023-05-09T05:52:28.362Z,577.00
2023-05-09T05:53:29.817Z,581.00
2023-05-09T05:54:28.418Z,589.00
2023-05-09T05:55:28.456Z,593.00
2023-05-09T05:56:28.680Z,594.00
2023-05-09T05:57:28.548Z,601.00
2023-05-09T05:58:28.653Z,603.00
2023-05-09T05:59:28.675Z,615.00
2023-05-09T06:00:28.726Z,616.00
2023-05-09T06:01:28.789Z,623.00
2023-05-09T06:02:28.889Z,607.00
2023-05-09T06:03:29.388Z,609.00
2023-05-09T06:04:28.828Z,599.00
2023-05-09T06:05:28.835Z,612.00
2023-05-09T06:06:28.867Z,626.00
2023-05-09T06:07:28.852Z,626.00
2023-05-09T06:08:29.298Z,635.00
2023-05-09T06:09:28.886Z,644.00
2023-05-09T06:10:28.942Z,651.00
2023-05-09T06:11:28.911Z,652.00
2023-05-09T06:12:29.014Z,659.00
2023-05-09T06:13:29.348Z,655.00
2023-05-09T06:14:29.017Z,665.00
2023-05-09T06:15:28.904Z,675.00
2023-05-09T06:16:28.950Z,702.00
2023-05-09T06:17:28.952Z,711.00
2023-05-09T06:18:28.948Z,733.00
2023-05-09T06:19:28.914Z,744.00
2023-05-09T06:20:28.968Z,747.00
2023-05-09T06:21:28.969Z,755.00
2023-05-09T06:22:29.013Z,781.00
2023-05-09T06:23:29.098Z,779.00
2023-05-09T06:24:35.561Z,794.00
2023-05-09T06:25:30.139Z,795.00
2023-05-09T06:26:29.148Z,799.00
2023-05-09T06:27:29.167Z,804.00
2023-05-09T06:28:29.195Z,821.00
2023-05-09T06:29:29.090Z,827.00
2023-05-09T06:30:29.242Z,838.00
2023-05-09T06:31:29.151Z,840.00
2023-05-09T06:32:29.141Z,854.00
2023-05-09T06:33:29.094Z,873.00
2023-05-09T06:34:29.073Z,884.00
2023-05-09T06:35:29.068Z,886.00
2023-05-09T06:36:29.157Z,889.00
2023-05-09T06:37:29.161Z,899.00
2023-05-09T06:38:29.296Z,896.00
2023-05-09T06:39:29.251Z,909.00
2023-05-09T06:40:29.321Z,898.00
2023-05-09T06:41:29.323Z,896.00
2023-05-09T06:42:29.350Z,899.00
2023-05-09T06:43:29.849Z,917.00
2023-05-09T06:44:29.433Z,930.00
2023-05-09T06:45:29.526Z,936.00
2023-05-09T06:46:29.520Z,947.00
2023-05-09T06:47:29.596Z,936.00
2023-05-09T06:48:29.834Z,958.00
2023-05-09T06:49:29.576Z,963.00
2023-05-09T06:50:32.687Z,945.00
2023-05-09T06:51:29.600Z,968.00
2023-05-09T06:52:29.568Z,975.00
2023-05-09T06:53:29.613Z,888.00
2023-05-09T06:54:29.572Z,863.00
2023-05-09T06:55:29.578Z,890.00
2023-05-09T06:56:29.563Z,897.00
2023-05-09T06:57:29.561Z,872.00
2023-05-09T06:58:29.537Z,896.00
2023-05-09T06:59:29.548Z,903.00
2023-05-09T07:00:29.618Z,901.00
2023-05-09T07:01:29.590Z,889.00
2023-05-09T07:02:29.521Z,915.00
2023-05-09T07:03:29.527Z,955.00
2023-05-09T07:04:29.539Z,983.00
2023-05-09T07:05:29.585Z,997.00
2023-05-09T07:06:29.509Z,994.00
2023-05-09T07:07:29.468Z,1010.00
2023-05-09T07:08:29.498Z,1011.00
2023-05-09T07:09:29.472Z,1011.00
2023-05-09T07:10:29.451Z,1023.00
2023-05-09T07:11:29.467Z,1049.00
2023-05-09T07:12:29.431Z,1036.00
2023-05-09T07:13:29.452Z,1061.00
2023-05-09T07:14:29.454Z,1060.00
2023-05-09T07:15:40.417Z,1064.00
2023-05-09T07:16:30.610Z,1065.00
2023-05-09T07:17:29.433Z,1065.00
2023-05-09T07:18:29.884Z,1058.00
2023-05-09T07:19:29.435Z,1051.00
2023-05-09T07:20:29.389Z,1052.00
2023-05-09T07:21:29.398Z,1055.00
2023-05-09T07:22:31.511Z,1051.00
2023-05-09T07:23:29.387Z,1058.00
2023-05-09T07:24:29.338Z,1054.00
2023-05-09T07:25:29.354Z,1042.00
2023-05-09T07:26:29.348Z,1037.00
2023-05-09T07:27:29.316Z,1034.00
2023-05-09T07:28:29.321Z,1027.00
2023-05-09T07:29:29.311Z,1028.00
2023-05-09T07:30:29.334Z,1025.00
2023-05-09T07:31:29.375Z,1025.00
2023-05-09T07:32:29.410Z,1014.00
2023-05-09T07:33:29.333Z,1015.00
2023-05-09T07:34:29.288Z,1026.00
2023-05-09T07:35:29.299Z,1029.00
2023-05-09T07:36:29.260Z,1047.00
2023-05-09T07:37:29.259Z,1050.00
2023-05-09T07:38:29.356Z,1052.00
2023-05-09T07:39:29.246Z,1059.00
2023-05-09T07:40:29.236Z,1049.00
2023-05-09T07:41:29.849Z,1054.00
2023-05-09T07:42:29.237Z,1056.00
2023-05-09T07:43:29.201Z,1061.00
2023-05-09T07:44:29.212Z,1050.00
2023-05-09T07:45:29.183Z,1068.00
2023-05-09T07:46:29.249Z,1041.00
2023-05-09T07:47:29.210Z,1045.00
2023-05-09T07:48:29.424Z,1026.00
2023-05-09T07:49:29.152Z,1022.00
2023-05-09T07:50:29.156Z,1022.00
2023-05-09T07:51:29.166Z,1023.00
2023-05-09T07:52:29.146Z,1025.00
2023-05-09T07:53:29.131Z,1047.00
2023-05-09T07:54:29.124Z,1040.00
2023-05-09T07:55:29.110Z,1067.00
2023-05-09T07:56:29.108Z,1090.00
2023-05-09T07:57:29.088Z,1064.00
2023-05-09T07:58:29.109Z,1047.00
2023-05-09T07:59:29.077Z,1026.00
2023-05-09T08:00:29.074Z,951.00
2023-05-09T08:01:29.099Z,890.00
2023-05-09T08:02:29.162Z,834.00
2023-05-09T08:03:29.496Z,788.00
2023-05-09T08:04:29.272Z,758.00
2023-05-09T08:05:29.057Z,717.00
2023-05-09T08:06:29.034Z,673.00
2023-05-09T08:07:29.042Z,655.00
2023-05-09T08:08:29.350Z,648.00
2023-05-09T08:09:29.072Z,631.00
2023-05-09T08:10:29.104Z,629.00
2023-05-09T08:11:29.114Z,620.00
2023-05-09T08:12:29.152Z,612.00
2023-05-09T08:13:29.284Z,598.00
2023-05-09T08:14:29.265Z,598.00
2023-05-09T08:15:29.317Z,599.00
2023-05-09T08:16:29.494Z,588.00
2023-05-09T08:17:29.494Z,573.00
2023-05-09T08:18:29.481Z,575.00
2023-05-09T08:19:29.558Z,573.00
2023-05-09T08:20:29.685Z,587.00
2023-05-09T08:21:29.650Z,595.00
2023-05-09T08:22:29.699Z,600.00
2023-05-09T08:23:29.778Z,607.00
2023-05-09T08:24:29.825Z,614.00
2023-05-09T08:25:29.870Z,613.00
2023-05-09T08:26:29.891Z,617.00
2023-05-09T08:27:29.963Z,620.00
2023-05-09T08:28:30.371Z,628.00
2023-05-09T08:29:30.059Z,629.00
2023-05-09T08:30:30.904Z,628.00
2023-05-09T08:31:30.195Z,625.00
2023-05-09T08:32:30.159Z,629.00
2023-05-09T08:33:30.127Z,626.00
2023-05-09T08:34:30.161Z,627.00
2023-05-09T08:35:30.165Z,627.00
2023-05-09T08:36:30.263Z,622.00
2023-05-09T08:37:30.179Z,629.00
2023-05-09T08:38:30.376Z,633.00
2023-05-09T08:39:30.194Z,633.00
2023-05-09T08:40:30.196Z,635.00
2023-05-09T08:41:30.196Z,602.00
2023-05-09T08:42:30.232Z,595.00
2023-05-09T08:43:30.216Z,600.00
2023-05-09T08:44:30.218Z,606.00
2023-05-09T08:45:30.226Z,606.00
2023-05-09T08:46:30.233Z,615.00
2023-05-09T08:47:30.240Z,598.00
2023-05-09T08:48:30.184Z,615.00
2023-05-09T08:49:30.402Z,618.00
2023-05-09T08:50:30.176Z,623.00
2023-05-09T08:51:30.194Z,615.00
2023-05-09T08:52:30.264Z,607.00
2023-05-09T08:53:30.242Z,613.00
2023-05-09T08:54:30.418Z,631.00
2023-05-09T08:55:30.165Z,635.00
2023-05-09T08:56:30.156Z,610.00
2023-05-09T08:57:30.179Z,605.00
2023-05-09T08:58:30.175Z,570.00
2023-05-09T08:59:30.394Z,595.00
2023-05-09T09:00:30.149Z,612.00
2023-05-09T09:01:30.164Z,623.00
2023-05-09T09:02:30.229Z,628.00
2023-05-09T09:03:30.127Z,629.00
2023-05-09T09:04:30.433Z,631.00
2023-05-09T09:06:30.153Z,635.00
2023-05-09T09:07:31.264Z,635.00
2023-05-09T09:08:30.244Z,637.00
2023-05-09T09:09:30.398Z,640.00
2023-05-09T09:10:30.113Z,644.00
2023-05-09T09:11:30.124Z,642.00
2023-05-09T09:12:30.122Z,644.00
2023-05-09T09:13:30.320Z,636.00
2023-05-09T09:14:30.397Z,639.00
2023-05-09T09:15:30.088Z,636.00
2023-05-09T09:16:30.160Z,630.00
2023-05-09T09:17:30.110Z,631.00
2023-05-09T09:18:30.061Z,630.00
2023-05-09T09:19:30.084Z,628.00
2023-05-09T09:20:30.050Z,631.00
2023-05-09T09:21:30.027Z,632.00
2023-05-09T09:22:30.029Z,635.00
2023-05-09T09:23:30.046Z,630.00
2023-05-09T09:24:30.136Z,584.00
2023-05-09T09:25:30.119Z,603.00
2023-05-09T09:26:30.215Z,607.00
2023-05-09T09:27:30.273Z,606.00
2023-05-09T09:28:30.294Z,611.00
2023-05-09T09:29:30.414Z,608.00
2023-05-09T09:30:30.348Z,604.00
2023-05-09T09:31:30.474Z,605.00
2023-05-09T09:32:30.457Z,606.00
2023-05-09T09:33:30.413Z,601.00
2023-05-09T09:34:30.910Z,605.00
2023-05-09T09:35:30.441Z,608.00
2023-05-09T09:36:30.420Z,593.00
2023-05-09T09:37:30.467Z,600.00
2023-05-09T09:38:30.470Z,597.00
2023-05-09T09:39:30.926Z,596.00
2023-05-09T09:40:30.655Z,591.00
2023-05-09T09:41:30.632Z,589.00
2023-05-09T09:42:30.682Z,603.00
2023-05-09T09:43:30.765Z,595.00
2023-05-09T09:44:30.949Z,586.00
2023-05-09T09:45:30.863Z,587.00
2023-05-09T09:46:30.979Z,575.00
2023-05-09T09:47:31.067Z,579.00
2023-05-09T09:48:31.039Z,584.00
2023-05-09T09:49:31.426Z,570.00
2023-05-09T09:50:31.104Z,571.00
2023-05-09T09:51:31.193Z,597.00
2023-05-09T09:52:31.219Z,605.00
2023-05-09T09:53:31.281Z,572.00
2023-05-09T09:54:31.437Z,576.00
2023-05-09T09:55:31.440Z,589.00
2023-05-09T09:56:31.587Z,605.00
2023-05-09T09:57:31.571Z,608.00
2023-05-09T09:58:31.616Z,623.00
2023-05-09T09:59:31.675Z,621.00
2023-05-09T10:00:31.771Z,619.00
2023-05-09T10:01:31.837Z,620.00
2023-05-09T10:02:32.036Z,615.00
2023-05-09T10:03:31.910Z,617.00
2023-05-09T10:04:31.961Z,623.00
2023-05-09T10:05:31.992Z,622.00
2023-05-09T10:06:32.063Z,619.00
2023-05-09T10:07:32.103Z,625.00
2023-05-09T10:08:32.132Z,624.00
2023-05-09T10:09:32.428Z,619.00
2023-05-09T10:10:32.223Z,625.00
2023-05-09T10:11:32.264Z,623.00
2023-05-09T10:12:32.423Z,630.00
2023-05-09T10:13:32.306Z,620.00
2023-05-09T10:14:34.329Z,627.00
2023-05-09T10:15:41.273Z,643.00
2023-05-09T10:16:43.787Z,644.00
2023-05-09T10:17:33.702Z,644.00
2023-05-09T10:18:32.702Z,645.00
2023-05-09T10:19:32.992Z,647.00
2023-05-09T10:20:32.522Z,652.00
2023-05-09T10:21:32.587Z,655.00
2023-05-09T10:22:32.509Z,651.00
2023-05-09T10:23:32.516Z,642.00
2023-05-09T10:24:32.519Z,648.00
2023-05-09T10:25:32.528Z,654.00
2023-05-09T10:26:32.551Z,656.00
2023-05-09T10:27:32.500Z,652.00
2023-05-09T10:28:32.575Z,637.00
2023-05-09T10:29:32.466Z,629.00
2023-05-09T10:30:34.061Z,625.00
2023-05-09T10:31:32.510Z,614.00
2023-05-09T10:32:32.526Z,605.00
2023-05-09T10:33:32.434Z,601.00
2023-05-09T10:34:32.453Z,596.00
2023-05-09T10:35:32.417Z,582.00
2023-05-09T10:36:32.393Z,569.00
2023-05-09T10:37:33.514Z,565.00
2023-05-09T10:38:32.407Z,560.00
2023-05-09T10:39:32.389Z,534.00
2023-05-09T10:40:32.383Z,538.00
2023-05-09T10:41:32.364Z,518.00
2023-05-09T10:42:32.366Z,521.00
2023-05-09T10:43:32.601Z,506.00
2023-05-09T10:44:32.554Z,527.00
2023-05-09T10:45:32.354Z,539.00
2023-05-09T10:46:32.373Z,535.00
2023-05-09T10:47:32.459Z,541.00
2023-05-09T10:48:32.344Z,549.00
2023-05-09T10:49:33.056Z,550.00
2023-05-09T10:50:32.313Z,548.00
2023-05-09T10:51:32.312Z,538.00
2023-05-09T10:52:32.294Z,533.00
2023-05-09T10:53:32.308Z,536.00
2023-05-09T10:54:32.263Z,531.00
2023-05-09T10:55:32.289Z,535.00
2023-05-09T10:56:32.317Z,529.00
2023-05-09T10:57:32.289Z,526.00
2023-05-09T10:58:32.273Z,522.00
2023-05-09T10:59:32.439Z,519.00
2023-05-09T11:00:32.330Z,527.00
2023-05-09T11:01:32.238Z,541.00
2023-05-09T11:02:32.305Z,537.00
2023-05-09T11:03:32.355Z,545.00
2023-05-09T11:04:32.470Z,543.00
2023-05-09T11:05:32.330Z,542.00
2023-05-09T11:06:32.316Z,544.00
2023-05-09T11:07:32.408Z,539.00
2023-05-09T11:08:32.376Z,537.00
2023-05-09T11:09:32.422Z,544.00
2023-05-09T11:10:32.449Z,541.00
2023-05-09T11:11:32.486Z,540.00
2023-05-09T11:12:32.490Z,541.00
2023-05-09T11:13:32.563Z,536.00
2023-05-09T11:14:32.976Z,538.00
2023-05-09T11:15:32.572Z,534.00
2023-05-09T11:16:32.754Z,535.00
2023-05-09T11:17:32.665Z,530.00
2023-05-09T11:18:32.701Z,531.00
2023-05-09T11:19:32.657Z,532.00
2023-05-09T11:20:32.719Z,534.00
2023-05-09T11:21:32.759Z,528.00
2023-05-09T11:22:32.966Z,531.00
2023-05-09T11:23:32.829Z,529.00
2023-05-09T11:24:32.879Z,524.00
2023-05-09T11:25:32.867Z,523.00
2023-05-09T11:26:32.939Z,523.00
2023-05-09T11:27:32.933Z,520.00
2023-05-09T11:28:32.982Z,519.00
2023-05-09T11:29:33.504Z,520.00
2023-05-09T11:30:33.025Z,521.00
2023-05-09T11:31:33.089Z,517.00
2023-05-09T11:32:33.228Z,516.00
2023-05-09T11:33:33.121Z,516.00
2023-05-09T11:34:33.187Z,517.00
2023-05-09T11:35:33.254Z,516.00
2023-05-09T11:36:33.370Z,518.00
2023-05-09T11:37:33.309Z,514.00
2023-05-09T11:38:33.335Z,513.00
2023-05-09T11:39:33.396Z,517.00
2023-05-09T11:40:33.420Z,513.00
2023-05-09T11:41:33.479Z,512.00
2023-05-09T11:42:33.493Z,515.00
2023-05-09T11:43:33.528Z,517.00
2023-05-09T11:44:33.629Z,512.00
2023-05-09T11:45:33.715Z,513.00
2023-05-09T11:46:33.715Z,514.00
2023-05-09T11:47:33.735Z,515.00
2023-05-09T11:48:33.843Z,514.00
2023-05-09T11:49:33.974Z,513.00
2023-05-09T11:50:33.838Z,510.00
2023-05-09T11:51:33.878Z,517.00
2023-05-09T11:52:33.922Z,517.00
2023-05-09T11:53:33.948Z,509.00
2023-05-09T11:54:33.998Z,509.00
2023-05-09T11:55:34.080Z,512.00
2023-05-09T11:56:34.093Z,510.00
2023-05-09T11:57:34.162Z,505.00
2023-05-09T11:58:34.193Z,502.00
2023-05-09T11:59:34.219Z,506.00
2023-05-09T12:00:34.286Z,508.00
2023-05-09T12:01:34.350Z,508.00
2023-05-09T12:02:34.438Z,509.00
2023-05-09T12:03:34.519Z,507.00
2023-05-09T12:04:34.633Z,508.00
2023-05-09T12:05:34.559Z,505.00
2023-05-09T12:06:34.605Z,506.00
2023-05-09T12:07:34.620Z,508.00
2023-05-09T12:08:34.650Z,506.00
2023-05-09T12:09:35.007Z,506.00
2023-05-09T12:10:34.800Z,506.00
2023-05-09T12:11:34.790Z,503.00
2023-05-09T12:12:35.790Z,504.00
2023-05-09T12:13:34.776Z,504.00
2023-05-09T12:14:34.781Z,506.00
2023-05-09T12:15:34.759Z,507.00
2023-05-09T12:16:34.966Z,509.00
2023-05-09T12:17:34.796Z,506.00
2023-05-09T12:18:34.749Z,506.00
2023-05-09T12:19:34.741Z,505.00
2023-05-09T12:20:34.816Z,506.00
2023-05-09T12:21:34.763Z,506.00
2023-05-09T12:22:34.719Z,505.00
2023-05-09T12:23:34.730Z,504.00
2023-05-09T12:24:34.732Z,503.00
2023-05-09T12:25:34.996Z,505.00
2023-05-09T12:26:35.028Z,504.00
2023-05-09T12:27:34.912Z,508.00